createdAt,value
2023-04-01T00:00:30.662Z,8.54
2023-04-01T00:02:57.876Z,8.57
2023-04-01T00:05:27.387Z,8.27
2023-04-01T00:07:53.933Z,8.48
2023-04-01T00:10:21.856Z,8.71
2023-04-01T00:12:48.411Z,8.27
2023-04-01T00:15:15.028Z,8.66
2023-04-01T00:17:41.643Z,8.49
2023-04-01T00:20:09.193Z,7.87
2023-04-01T00:22:35.981Z,8.34
2023-04-01T00:25:03.044Z,7.82
2023-04-01T00:27:31.289Z,8.28
2023-04-01T00:29:57.893Z,8.67
2023-04-01T00:32:24.536Z,8.74
2023-04-01T00:34:51.581Z,8.78
2023-04-01T00:37:18.215Z,8.79
2023-04-01T00:39:45.362Z,8.79
2023-04-01T00:42:12.221Z,8.19
2023-04-01T00:44:40.973Z,8.70
2023-04-01T00:47:07.611Z,8.78
2023-04-01T00:49:38.153Z,8.52
2023-04-01T00:52:06.466Z,8.57
2023-04-01T00:54:34.468Z,7.32
2023-04-01T00:57:04.902Z,8.26
2023-04-01T00:59:34.831Z,8.17
2023-04-01T01:02:03.976Z,7.76
2023-04-01T01:04:31.990Z,7.88
2023-04-01T01:07:13.139Z,8.21
2023-04-01T01:09:47.764Z,8.50
2023-04-01T01:12:17.016Z,8.51
2023-04-01T01:14:56.297Z,8.60
2023-04-01T01:17:34.143Z,8.35
2023-04-01T01:20:39.200Z,8.54
2023-04-01T01:23:29.028Z,8.24
2023-04-01T01:26:04.839Z,8.33
2023-04-01T01:28:46.309Z,8.01
2023-04-01T01:31:21.599Z,8.38
2023-04-01T01:34:16.547Z,8.28
2023-04-01T01:36:46.738Z,8.51
2023-04-01T01:39:14.723Z,8.28
2023-04-01T01:41:43.828Z,8.34
2023-04-01T01:44:14.489Z,8.42
2023-04-01T01:46:43.580Z,8.42
2023-04-01T01:49:12.043Z,8.50
2023-04-01T01:51:40.051Z,8.38
2023-04-01T01:54:08.079Z,8.23
2023-04-01T01:56:36.214Z,8.20
2023-04-01T01:59:07.080Z,8.52
2023-04-01T02:01:39.262Z,8.19
2023-04-01T02:04:06.363Z,8.37
2023-04-01T02:06:39.073Z,8.47
2023-04-01T02:09:08.745Z,8.54
2023-04-01T02:11:38.076Z,8.40
2023-04-01T02:14:11.197Z,8.21
2023-04-01T02:16:44.723Z,8.30
2023-04-01T02:19:13.291Z,8.34
2023-04-01T02:21:42.984Z,8.20
2023-04-01T02:24:12.875Z,8.45
2023-04-01T02:26:40.046Z,8.53
2023-04-01T02:29:09.363Z,8.44
2023-04-01T02:31:36.144Z,8.50
2023-04-01T02:34:04.243Z,8.24
2023-04-01T02:36:31.141Z,8.37
2023-04-01T02:39:03.225Z,8.42
2023-04-01T02:41:31.194Z,8.48
2023-04-01T02:43:59.383Z,8.25
2023-04-01T02:46:26.215Z,7.77
2023-04-01T02:48:52.798Z,7.87
2023-04-01T02:51:19.958Z,7.78
2023-04-01T02:53:46.514Z,7.59
2023-04-01T02:56:13.366Z,7.88
2023-04-01T02:58:41.227Z,7.53
2023-04-01T03:01:09.208Z,8.16
2023-04-01T03:03:36.127Z,7.57
2023-04-01T03:06:06.712Z,7.84
2023-04-01T03:08:33.297Z,8.28
2023-04-01T03:11:00.682Z,7.82
2023-04-01T03:13:27.483Z,7.46
2023-04-01T03:15:55.597Z,7.60
2023-04-01T03:18:22.362Z,8.16
2023-04-01T03:20:51.043Z,8.33
2023-04-01T03:23:20.212Z,8.38
2023-04-01T03:25:49.179Z,8.31
2023-04-01T03:28:15.774Z,8.09
2023-04-01T03:30:42.421Z,8.17
2023-04-01T03:33:10.363Z,8.36
2023-04-01T03:35:37.013Z,8.41
2023-04-01T03:38:03.755Z,8.43
2023-04-01T03:40:30.399Z,8.38
2023-04-01T03:42:57.252Z,7.59
2023-04-01T03:45:23.921Z,8.26
2023-04-01T03:47:50.601Z,8.33
2023-04-01T03:50:18.813Z,8.37
2023-04-01T03:52:45.545Z,8.25
2023-04-01T03:55:12.451Z,8.23
2023-04-01T03:57:39.084Z,8.39
2023-04-01T04:00:07.027Z,8.00
2023-04-01T04:02:33.638Z,8.28
2023-04-01T04:05:00.274Z,7.86
2023-04-01T04:07:28.162Z,7.56
2023-04-01T04:09:54.804Z,8.30
2023-04-01T04:12:21.345Z,8.38
2023-04-01T04:14:47.900Z,8.35
2023-04-01T04:17:17.106Z,8.25
2023-04-01T04:19:43.824Z,8.07
2023-04-01T04:22:10.530Z,8.35
2023-04-01T04:24:38.625Z,8.37
2023-04-01T04:27:05.569Z,7.42
2023-04-01T04:29:32.210Z,8.21
2023-04-01T04:31:58.816Z,8.31
2023-04-01T04:34:25.647Z,8.37
2023-04-01T04:36:52.326Z,8.36
2023-04-01T04:39:18.942Z,8.06
2023-04-01T04:41:46.870Z,8.27
2023-04-01T04:44:13.469Z,7.72
2023-04-01T04:46:40.555Z,7.40
2023-04-01T04:49:07.860Z,7.91
2023-04-01T04:51:36.638Z,8.17
2023-04-01T04:54:03.696Z,7.39
2023-04-01T04:56:31.676Z,7.04
2023-04-01T04:58:59.942Z,7.74
2023-04-01T05:01:26.701Z,7.68
2023-04-01T05:03:53.386Z,7.54
2023-04-01T05:06:22.974Z,7.91
2023-04-01T05:08:50.370Z,8.19
2023-04-01T05:11:20.700Z,7.77
2023-04-01T05:13:47.905Z,7.93
2023-04-01T05:16:18.161Z,8.13
2023-04-01T05:18:45.439Z,7.73
2023-04-01T05:21:14.137Z,8.07
2023-04-01T05:23:40.912Z,7.64
2023-04-01T05:26:09.388Z,8.02
2023-04-01T05:28:36.214Z,8.15
2023-04-01T05:31:04.150Z,8.19
2023-04-01T05:33:33.237Z,7.95
2023-04-01T05:36:07.421Z,8.18
2023-04-01T05:38:34.129Z,7.68
2023-04-01T05:41:02.103Z,8.13
2023-04-01T05:43:28.929Z,8.20
2023-04-01T05:45:55.816Z,7.62
2023-04-01T05:48:22.505Z,8.01
2023-04-01T05:50:50.490Z,8.12
2023-04-01T05:53:17.062Z,7.71
2023-04-01T05:55:43.737Z,7.48
2023-04-01T05:58:10.389Z,7.16
2023-04-01T06:00:37.096Z,7.26
2023-04-01T06:03:03.803Z,7.82
2023-04-01T06:05:37.689Z,7.63
2023-04-01T06:08:11.836Z,7.91
2023-04-01T06:10:53.011Z,8.01
2023-04-01T06:13:29.380Z,7.43
2023-04-01T06:16:03.422Z,7.58
2023-04-01T06:19:00.845Z,7.64
2023-04-01T06:21:45.558Z,7.97
2023-04-01T06:24:30.746Z,7.94
2023-04-01T06:27:09.152Z,8.06
2023-04-01T06:29:54.732Z,8.03
2023-04-01T06:32:45.592Z,7.88
2023-04-01T06:35:47.453Z,7.89
2023-04-01T06:38:42.967Z,8.07
2023-04-01T06:41:51.717Z,8.12
2023-04-01T06:44:26.215Z,8.14
2023-04-01T06:46:59.619Z,8.13
2023-04-01T06:49:36.408Z,8.17
2023-04-01T06:52:13.705Z,8.15
2023-04-01T06:54:44.630Z,8.22
2023-04-01T06:57:21.604Z,8.30
2023-04-01T06:59:50.076Z,8.26
2023-04-01T07:02:25.517Z,8.25
2023-04-01T07:04:56.077Z,8.17
2023-04-01T07:07:30.237Z,8.22
2023-04-01T07:10:02.002Z,8.21
2023-04-01T07:12:39.505Z,8.22
2023-04-01T07:15:18.333Z,8.42
2023-04-01T07:17:48.051Z,8.45
2023-04-01T07:20:16.939Z,8.47
2023-04-01T07:22:46.324Z,8.25
2023-04-01T07:25:15.850Z,8.26
2023-04-01T07:27:42.755Z,8.88
2023-04-01T07:30:17.202Z,8.61
2023-04-01T07:32:48.662Z,9.93
2023-04-01T07:35:25.368Z,10.30
2023-04-01T07:38:11.221Z,8.73
2023-04-01T07:40:47.930Z,9.87
2023-04-01T07:43:38.045Z,9.13
2023-04-01T07:46:15.071Z,8.95
2023-04-01T07:48:51.790Z,8.70
2023-04-01T07:51:23.711Z,8.48
2023-04-01T07:54:00.389Z,9.48
2023-04-01T07:56:31.543Z,9.71
2023-04-01T07:59:07.204Z,9.45
2023-04-01T08:01:41.707Z,8.98
2023-04-01T08:04:22.523Z,8.51
2023-04-01T08:06:56.893Z,9.35
2023-04-01T08:09:32.329Z,8.55
2023-04-01T08:12:08.484Z,8.80
2023-04-01T08:14:45.285Z,8.53
2023-04-01T08:17:20.659Z,9.26
2023-04-01T08:19:57.654Z,8.71
2023-04-01T08:22:28.645Z,8.98
2023-04-01T08:24:58.368Z,8.55
2023-04-01T08:27:27.118Z,8.93
2023-04-01T08:29:58.742Z,8.67
2023-04-01T08:32:31.855Z,9.88
2023-04-01T08:35:10.545Z,10.74
2023-04-01T08:37:40.997Z,8.87
2023-04-01T08:40:37.493Z,9.93
2023-04-01T08:43:11.221Z,9.32
2023-04-01T08:46:04.569Z,8.72
2023-04-01T08:49:03.886Z,9.76
2023-04-01T08:52:02.763Z,9.05
2023-04-01T08:54:47.494Z,9.76
2023-04-01T08:57:22.903Z,10.38
2023-04-01T09:00:02.630Z,8.99
2023-04-01T09:02:44.006Z,8.87
2023-04-01T09:05:30.251Z,9.96
2023-04-01T09:08:08.960Z,8.95
2023-04-01T09:10:51.134Z,10.46
2023-04-01T09:13:34.066Z,10.75
2023-04-01T09:16:24.163Z,10.70
2023-04-01T09:19:06.745Z,9.16
2023-04-01T09:21:53.850Z,10.82
2023-04-01T09:24:41.722Z,9.62
2023-04-01T09:27:21.072Z,11.24
2023-04-01T09:30:29.467Z,12.28
2023-04-01T09:33:22.249Z,11.68
2023-04-01T09:35:51.681Z,11.29
2023-04-01T09:38:23.295Z,12.79
2023-04-01T09:40:56.705Z,10.23
2023-04-01T09:43:29.260Z,9.83
2023-04-01T09:46:15.780Z,9.40
2023-04-01T09:49:10.331Z,9.32
2023-04-01T09:51:46.730Z,9.35
2023-04-01T09:54:25.139Z,10.05
2023-04-01T09:57:26.459Z,11.09
2023-04-01T10:00:25.285Z,11.80
2023-04-01T10:03:30.587Z,12.08
2023-04-01T10:06:38.927Z,11.03
2023-04-01T10:09:45.998Z,9.82
2023-04-01T10:12:35.318Z,10.25
2023-04-01T10:15:31.484Z,9.58
2023-04-01T10:18:37.238Z,11.61
2023-04-01T10:21:37.240Z,10.18
2023-04-01T10:24:45.868Z,9.67
2023-04-01T10:27:40.597Z,9.83
2023-04-01T10:30:40.858Z,9.94
2023-04-01T10:33:39.268Z,10.37
2023-04-01T10:36:36.482Z,10.03
2023-04-01T10:39:34.715Z,10.54
2023-04-01T10:42:50.850Z,9.91
2023-04-01T10:46:05.959Z,9.61
2023-04-01T10:49:12.540Z,10.05
2023-04-01T10:52:08.602Z,10.91
2023-04-01T10:54:46.823Z,9.82
2023-04-01T10:57:43.537Z,9.89
2023-04-01T11:00:33.026Z,10.66
2023-04-01T11:03:26.924Z,11.17
2023-04-01T11:06:35.299Z,9.73
2023-04-01T11:09:32.597Z,9.73
2023-04-01T11:12:41.813Z,9.77
2023-04-01T11:15:32.810Z,11.33
2023-04-01T11:18:50.559Z,10.77
2023-04-01T11:21:50.883Z,10.39
2023-04-01T11:24:52.020Z,9.93
2023-04-01T11:27:31.628Z,11.11
2023-04-01T11:30:13.983Z,10.00
2023-04-01T11:33:02.034Z,9.82
2023-04-01T11:35:57.046Z,11.40
2023-04-01T11:38:37.517Z,10.61
2023-04-01T11:41:19.674Z,9.90
2023-04-01T11:43:58.828Z,10.14
2023-04-01T11:46:31.456Z,10.36
2023-04-01T11:49:15.908Z,10.22
2023-04-01T11:52:06.690Z,10.11
2023-04-01T11:54:51.659Z,10.04
2023-04-01T11:57:44.327Z,10.25
2023-04-01T12:00:27.139Z,10.31
2023-04-01T12:03:11.314Z,9.94
2023-04-01T12:05:48.516Z,10.67
2023-04-01T12:08:30.379Z,10.33
2023-04-01T12:11:03.893Z,9.94
2023-04-01T12:13:41.259Z,10.04
2023-04-01T12:16:50.199Z,9.88
2023-04-01T12:19:25.336Z,10.61
2023-04-01T12:22:11.304Z,10.02
2023-04-01T12:24:59.554Z,9.91
2023-04-01T12:27:39.055Z,10.30
2023-04-01T12:30:29.255Z,9.89
2023-04-01T12:33:23.822Z,9.89
2023-04-01T12:36:01.984Z,9.89
2023-04-01T12:38:40.612Z,9.80
2023-04-01T12:41:14.077Z,10.06
2023-04-01T12:44:10.829Z,10.03
2023-04-01T12:46:50.871Z,9.84
2023-04-01T12:49:50.844Z,9.91
2023-04-01T12:52:26.612Z,9.92
2023-04-01T12:55:36.138Z,9.73
2023-04-01T12:58:39.229Z,9.81
2023-04-01T13:01:23.625Z,9.83
2023-04-01T13:04:28.783Z,9.64
2023-04-01T13:07:20.731Z,9.71
2023-04-01T13:09:58.415Z,9.65
2023-04-01T13:12:44.533Z,9.52
2023-04-01T13:15:32.302Z,9.76
2023-04-01T13:18:11.177Z,9.32
2023-04-01T13:20:45.585Z,9.50
2023-04-01T13:23:25.800Z,9.65
2023-04-01T13:26:12.956Z,9.45
2023-04-01T13:28:48.279Z,9.35
2023-04-01T13:31:29.398Z,9.48
2023-04-01T13:34:09.740Z,9.61
2023-04-01T13:36:48.819Z,9.65
2023-04-01T13:39:36.295Z,9.46
2023-04-01T13:42:16.015Z,9.48
2023-04-01T13:44:47.872Z,9.58
2023-04-01T13:47:53.483Z,9.53
2023-04-01T13:50:51.171Z,9.41
2023-04-01T13:53:30.239Z,9.55
2023-04-01T13:56:16.261Z,9.51
2023-04-01T13:58:58.637Z,9.60
2023-04-01T14:01:36.715Z,9.66
2023-04-01T14:04:34.929Z,9.66
2023-04-01T14:07:33.648Z,9.68
2023-04-01T14:10:13.038Z,9.69
2023-04-01T14:12:45.703Z,9.73
2023-04-01T14:15:27.952Z,9.71
2023-04-01T14:18:14.788Z,9.80
2023-04-01T14:20:47.727Z,9.72
2023-04-01T14:23:28.401Z,10.04
2023-04-01T14:26:11.156Z,10.09
2023-04-01T14:28:45.807Z,10.09
2023-04-01T14:31:41.463Z,9.97
2023-04-01T14:34:23.074Z,9.83
2023-04-01T14:37:13.714Z,9.76
2023-04-01T14:40:08.134Z,9.75
2023-04-01T14:43:10.946Z,9.77
2023-04-01T14:46:15.334Z,9.76
2023-04-01T14:48:52.740Z,9.91
2023-04-01T14:51:25.715Z,9.80
2023-04-01T14:54:03.778Z,9.75
2023-04-01T14:56:38.990Z,9.77
2023-04-01T14:59:10.420Z,9.58
2023-04-01T15:01:44.003Z,9.62
2023-04-01T15:04:53.908Z,9.52
2023-04-01T15:07:36.393Z,9.63
2023-04-01T15:10:11.860Z,9.62
2023-04-01T15:12:48.402Z,9.65
2023-04-01T15:15:31.130Z,9.64
2023-04-01T15:18:08.240Z,9.69
2023-04-01T15:21:07.395Z,9.73
2023-04-01T15:23:47.189Z,9.82
2023-04-01T15:26:43.495Z,9.67
2023-04-01T15:29:28.082Z,9.63
2023-04-01T15:32:01.787Z,9.73
2023-04-01T15:34:37.496Z,9.72
2023-04-01T15:37:12.871Z,9.72
2023-04-01T15:39:55.239Z,9.66
2023-04-01T15:42:42.796Z,9.66
2023-04-01T15:45:18.217Z,9.42
2023-04-01T15:47:54.720Z,9.51
2023-04-01T15:50:50.922Z,9.48
2023-04-01T15:53:29.729Z,9.54
2023-04-01T15:56:08.544Z,9.56
2023-04-01T15:58:50.360Z,9.37
2023-04-01T16:01:32.025Z,9.63
2023-04-01T16:04:12.422Z,9.65
2023-04-01T16:06:56.513Z,9.67
2023-04-01T16:09:37.861Z,9.52
2023-04-01T16:12:16.565Z,9.61
2023-04-01T16:14:56.752Z,9.40
2023-04-01T16:17:38.911Z,9.64
2023-04-01T16:20:20.043Z,9.54
2023-04-01T16:22:54.573Z,9.54
2023-04-01T16:25:35.842Z,9.55
2023-04-01T16:28:21.197Z,9.32
2023-04-01T16:30:55.939Z,9.30
2023-04-01T16:33:29.044Z,9.23
2023-04-01T16:36:00.991Z,9.42
2023-04-01T16:38:37.362Z,9.57
2023-04-01T16:41:15.313Z,9.23
2023-04-01T16:43:48.783Z,9.56
2023-04-01T16:46:31.138Z,8.81
2023-04-01T16:49:23.960Z,9.50
2023-04-01T16:51:57.765Z,9.62
2023-04-01T16:54:36.752Z,8.70
2023-04-01T16:57:17.153Z,9.02
2023-04-01T16:59:54.072Z,8.72
2023-04-01T17:02:26.202Z,9.41
2023-04-01T17:04:57.777Z,9.14
2023-04-01T17:07:38.071Z,9.51
2023-04-01T17:10:26.292Z,9.62
2023-04-01T17:13:16.564Z,9.65
2023-04-01T17:15:51.622Z,9.63
2023-04-01T17:18:27.588Z,9.23
2023-04-01T17:20:59.698Z,9.58
2023-04-01T17:23:34.869Z,9.44
2023-04-01T17:26:16.272Z,8.64
2023-04-01T17:28:50.337Z,9.31
2023-04-01T17:31:33.036Z,9.41
2023-04-01T17:34:17.453Z,8.16
2023-04-01T17:37:00.710Z,8.40
2023-04-01T17:39:41.261Z,8.36
2023-04-01T17:42:11.615Z,9.15
2023-04-01T17:44:49.551Z,9.20
2023-04-01T17:47:46.266Z,9.48
2023-04-01T17:50:25.011Z,9.45
2023-04-01T17:53:08.874Z,9.54
2023-04-01T17:55:47.112Z,8.40
2023-04-01T17:58:20.238Z,9.20
2023-04-01T18:01:11.575Z,9.19
2023-04-01T18:04:07.801Z,9.27
2023-04-01T18:06:47.955Z,9.53
2023-04-01T18:09:27.170Z,9.45
2023-04-01T18:12:06.398Z,8.98
2023-04-01T18:15:01.917Z,8.58
2023-04-01T18:17:39.936Z,9.30
2023-04-01T18:20:25.362Z,9.23
2023-04-01T18:22:58.452Z,9.11
2023-04-01T18:25:32.449Z,9.48
2023-04-01T18:28:18.441Z,8.63
2023-04-01T18:30:52.859Z,8.41
2023-04-01T18:33:24.040Z,8.58
2023-04-01T18:35:58.991Z,8.37
2023-04-01T18:38:30.708Z,9.01
2023-04-01T18:41:13.463Z,8.60
2023-04-01T18:43:51.340Z,8.20
2023-04-01T18:46:23.639Z,8.63
2023-04-01T18:49:00.945Z,9.18
2023-04-01T18:51:40.204Z,7.99
2023-04-01T18:54:13.360Z,8.91
2023-04-01T18:56:42.876Z,9.27
2023-04-01T18:59:16.318Z,8.54
2023-04-01T19:01:50.815Z,8.64
2023-04-01T19:04:24.688Z,8.31
2023-04-01T19:06:55.834Z,9.02
2023-04-01T19:09:26.014Z,8.84
2023-04-01T19:12:08.965Z,8.81
2023-04-01T19:14:59.092Z,9.23
2023-04-01T19:17:41.370Z,9.34
2023-04-01T19:20:18.752Z,9.10
2023-04-01T19:23:06.536Z,9.30
2023-04-01T19:25:39.014Z,9.36
2023-04-01T19:28:21.606Z,9.39
2023-04-01T19:30:55.559Z,9.38
2023-04-01T19:33:42.410Z,9.41
2023-04-01T19:36:17.082Z,9.40
2023-04-01T19:38:54.345Z,9.40
2023-04-01T19:41:34.581Z,9.40
2023-04-01T19:44:12.226Z,8.09
2023-04-01T19:46:44.903Z,8.60
2023-04-01T19:49:22.552Z,9.24
2023-04-01T19:51:53.561Z,9.32
2023-04-01T19:54:31.524Z,9.36
2023-04-01T19:57:06.118Z,7.38
2023-04-01T19:59:39.350Z,8.92
2023-04-01T20:02:34.234Z,9.20
2023-04-01T20:05:17.505Z,9.25
2023-04-01T20:07:49.897Z,9.31
2023-04-01T20:10:23.153Z,7.61
2023-04-01T20:13:00.176Z,6.73
2023-04-01T20:15:33.760Z,7.53
2023-04-01T20:18:03.258Z,8.48
2023-04-01T20:20:31.612Z,9.04
2023-04-01T20:23:18.053Z,9.12
2023-04-01T20:25:51.152Z,9.18
2023-04-01T20:28:26.217Z,8.61
2023-04-01T20:31:24.405Z,9.11
2023-04-01T20:34:13.104Z,9.19
2023-04-01T20:36:51.818Z,9.22
2023-04-01T20:39:40.447Z,9.22
2023-04-01T20:42:29.317Z,9.23
2023-04-01T20:45:10.864Z,9.15
2023-04-01T20:47:54.738Z,8.11
2023-04-01T20:50:29.111Z,8.63
2023-04-01T20:53:02.521Z,8.12
2023-04-01T20:56:01.841Z,8.72
2023-04-01T20:58:42.114Z,9.08
2023-04-01T21:01:20.552Z,9.16
2023-04-01T21:03:57.262Z,7.42
2023-04-01T21:06:42.384Z,8.41
2023-04-01T21:09:21.844Z,8.07
2023-04-01T21:11:57.405Z,8.88
2023-04-01T21:14:42.506Z,8.92
2023-04-01T21:17:17.956Z,8.98
2023-04-01T21:20:00.286Z,9.10
2023-04-01T21:22:52.328Z,8.99
2023-04-01T21:25:42.002Z,8.79
2023-04-01T21:28:32.480Z,9.07
2023-04-01T21:31:13.318Z,9.09
2023-04-01T21:33:50.349Z,8.80
2023-04-01T21:36:31.463Z,8.81
2023-04-01T21:39:14.706Z,9.00
2023-04-01T21:41:56.035Z,9.06
2023-04-01T21:44:43.965Z,9.06
2023-04-01T21:47:58.283Z,9.14
2023-04-01T21:50:45.048Z,9.12
2023-04-01T21:53:32.597Z,9.06
2023-04-01T21:56:30.695Z,9.14
2023-04-01T21:59:22.389Z,9.16
2023-04-01T22:02:15.782Z,8.13
2023-04-01T22:04:50.700Z,8.33
2023-04-01T22:07:19.930Z,8.86
2023-04-01T22:10:00.825Z,8.51
2023-04-01T22:12:34.396Z,8.96
2023-04-01T22:15:09.668Z,9.04
2023-04-01T22:17:42.049Z,9.03
2023-04-01T22:20:22.496Z,9.01
2023-04-01T22:23:15.367Z,9.01
2023-04-01T22:25:50.988Z,9.07
2023-04-01T22:28:23.119Z,9.04
2023-04-01T22:30:51.854Z,8.97
2023-04-01T22:33:29.241Z,7.55
2023-04-01T22:36:06.936Z,8.54
2023-04-01T22:38:55.950Z,6.73
2023-04-01T22:41:36.899Z,5.09
2023-04-01T22:44:03.534Z,6.90
2023-04-01T22:46:47.363Z,8.44
2023-04-01T22:49:23.374Z,8.65
2023-04-01T22:51:56.478Z,8.72
2023-04-01T22:54:29.677Z,8.77
2023-04-01T22:56:58.806Z,8.73
2023-04-01T22:59:32.516Z,8.54
2023-04-01T23:02:05.939Z,8.75
2023-04-01T23:04:38.551Z,8.04
2023-04-01T23:07:26.256Z,8.18
2023-04-01T23:09:57.316Z,8.42
2023-04-01T23:12:27.161Z,8.69
2023-04-01T23:14:57.749Z,7.72
2023-04-01T23:17:50.994Z,8.60
2023-04-01T23:20:30.840Z,8.73
2023-04-01T23:23:12.689Z,8.78
2023-04-01T23:25:50.388Z,8.77
2023-04-01T23:28:43.337Z,8.77
2023-04-01T23:31:30.313Z,8.81
2023-04-01T23:33:59.230Z,8.74
2023-04-01T23:36:26.660Z,8.54
2023-04-01T23:38:55.253Z,6.79
2023-04-01T23:41:26.240Z,7.89
2023-04-01T23:43:57.388Z,8.52
2023-04-01T23:46:25.237Z,8.68
2023-04-01T23:48:52.800Z,8.68
2023-04-01T23:51:22.697Z,8.70
2023-04-01T23:54:01.880Z,8.36
2023-04-01T23:56:36.465Z,8.56
2023-04-01T23:59:04.066Z,7.21
